Time;durP1;ratioP1;P1;durP2;ratioP2;P2;SDS_P1;SDS_P2;PMS_P1;PMS_P2;Temp;Humidity;BMP_temperature;BMP_pressure;BME280_temperature;BME280_humidity;BME280_pressure;Samples;Min_cycle;Max_cycle;Signal;HPM_P1;HPM_P2
2022/04/14 00:01:09;;;;;;;81.65;56.97;;;;;;;-145.45;100.00;62759.84;5313066;28;20396;-77
2022/04/14 00:03:40;;;;;;;93.63;60.97;;;;;;;-145.45;100.00;62759.84;5311019;28;20034;-77
2022/04/14 00:06:12;;;;;;;85.75;56.22;;;;;;;-145.45;100.00;62759.84;5305585;28;20508;-77
2022/04/14 00:08:43;;;;;;;90.38;60.38;;;;;;;-145.45;100.00;62759.84;5310330;28;20198;-77
2022/04/14 00:11:14;;;;;;;93.55;61.13;;;;;;;-145.45;100.00;62759.84;5310522;28;20376;-77
2022/04/14 00:13:46;;;;;;;93.93;61.05;;;;;;;-145.45;100.00;62759.84;5312043;28;20047;-77
2022/04/14 00:16:18;;;;;;;81.72;56.38;;;;;;;-145.45;100.00;62759.84;5308981;28;20060;-77
2022/04/14 00:18:49;;;;;;;85.45;56.60;;;;;;;-145.45;100.00;62759.84;5311765;28;20113;-77
2022/04/14 00:21:20;;;;;;;89.72;60.55;;;;;;;-145.45;100.00;62759.84;5311047;28;20170;-77
2022/04/14 00:23:51;;;;;;;89.85;58.40;;;;;;;-145.45;100.00;62759.84;5311980;28;20396;-77
2022/04/14 00:26:23;;;;;;;91.10;59.20;;;;;;;-145.45;100.00;62759.84;5292636;28;20035;-77
2022/04/14 00:28:54;;;;;;;80.22;54.08;;;;;;;-145.45;100.00;62759.84;5315118;28;20028;-77
2022/04/14 00:31:25;;;;;;;86.18;55.47;;;;;;;-145.45;100.00;62759.84;5308666;28;20037;-77
2022/04/14 00:33:56;;;;;;;67.65;46.90;;;;;;;-145.45;100.00;62759.84;5312812;28;20032;-77
2022/04/14 00:36:28;;;;;;;72.88;46.60;;;;;;;-145.45;100.00;62759.84;5314539;28;20041;-78
2022/04/14 00:39:00;;;;;;;74.97;52.00;;;;;;;-145.45;100.00;62759.84;5312103;28;20028;-78
2022/04/14 00:41:31;;;;;;;89.47;58.70;;;;;;;-145.45;100.00;62759.84;5295182;28;20043;-77
2022/04/14 00:44:03;;;;;;;55.05;42.78;;;;;;;-145.45;100.00;62759.84;5310595;28;20029;-78
2022/04/14 00:46:34;;;;;;;66.93;46.42;;;;;;;-145.45;100.00;62759.84;5309923;28;20032;-77
2022/04/14 00:49:06;;;;;;;58.60;42.20;;;;;;;-145.45;100.00;62759.84;5312178;28;20037;-78
2022/04/14 00:51:37;;;;;;;72.90;51.80;;;;;;;-145.45;100.00;62759.84;5314603;28;20142;-78
2022/04/14 00:54:08;;;;;;;81.55;55.25;;;;;;;-145.45;100.00;62759.84;5309221;28;41505;-77
2022/04/14 00:56:40;;;;;;;87.93;57.40;;;;;;;-145.45;100.00;62759.84;5310816;28;20032;-78
2022/04/14 00:59:11;;;;;;;85.50;55.50;;;;;;;-145.45;100.00;62759.84;5301623;28;20086;-78
2022/04/14 01:01:42;;;;;;;94.70;59.22;;;;;;;-145.45;100.00;62759.84;5301739;28;20395;-77
2022/04/14 01:04:15;;;;;;;91.05;60.15;;;;;;;-145.45;100.00;62759.84;5298306;28;20036;-77
2022/04/14 01:06:46;;;;;;;91.72;59.75;;;;;;;-145.45;100.00;62759.84;5301747;28;20091;-77
2022/04/14 01:09:19;;;;;;;90.45;60.53;;;;;;;-145.45;100.00;62759.84;5302975;28;20032;-77
2022/04/14 01:11:53;;;;;;;101.90;63.30;;;;;;;-145.45;100.00;62759.84;5313374;28;20032;-77
2022/04/14 01:14:33;;;;;;;98.70;61.38;;;;;;;-145.45;100.00;62759.84;5311158;28;20040;-77
2022/04/14 01:17:07;;;;;;;98.70;61.22;;;;;;;-145.45;100.00;62759.84;5312897;28;20093;-77
2022/04/14 01:19:39;;;;;;;101.82;63.70;;;;;;;-145.45;100.00;62759.84;5308652;28;20020;-78
2022/04/14 01:22:24;;;;;;;105.28;64.22;;;;;;;-145.45;100.00;62759.84;5312661;28;40473;-77
2022/04/14 01:24:57;;;;;;;109.38;66.32;;;;;;;-145.45;100.00;62759.84;5312275;28;20365;-78
2022/04/14 01:27:29;;;;;;;104.05;62.28;;;;;;;-145.45;100.00;62759.84;5308360;28;20107;-77
2022/04/14 01:30:01;;;;;;;100.40;62.08;;;;;;;-145.45;100.00;62759.84;5310158;28;20128;-77
2022/04/14 01:32:33;;;;;;;106.47;66.57;;;;;;;-145.45;100.00;62759.84;5287388;28;20067;-77
2022/04/14 01:35:06;;;;;;;110.95;68.53;;;;;;;-145.45;100.00;62759.84;5310543;28;20123;-77
2022/04/14 01:37:37;;;;;;;110.13;66.95;;;;;;;-145.45;100.00;62759.84;5313607;28;20032;-77
2022/04/14 01:40:09;;;;;;;112.15;65.93;;;;;;;-145.45;100.00;62759.84;5310815;28;20044;-77
2022/04/14 01:42:40;;;;;;;115.30;69.10;;;;;;;-145.45;100.00;62759.84;5290324;28;20020;-77
2022/04/14 01:45:12;;;;;;;109.85;64.55;;;;;;;-145.45;100.00;62759.84;5309662;28;20025;-77
2022/04/14 01:47:45;;;;;;;113.57;66.57;;;;;;;-145.45;100.00;62759.84;5314166;28;20034;-77
2022/04/14 01:50:16;;;;;;;117.05;67.50;;;;;;;-145.45;100.00;62759.84;5311352;28;20004;-77
2022/04/14 01:52:47;;;;;;;120.03;68.38;;;;;;;-145.45;100.00;62759.84;5310346;28;20020;-77
2022/04/14 01:55:19;;;;;;;117.15;69.22;;;;;;;-145.45;100.00;62759.84;5310524;28;20036;-77
2022/04/14 01:57:50;;;;;;;128.00;71.22;;;;;;;-145.45;100.00;62759.84;5309611;28;20028;-77
2022/04/14 02:00:21;;;;;;;129.52;74.47;;;;;;;-145.45;100.00;62759.84;5310189;28;20029;-77
2022/04/14 02:02:52;;;;;;;123.00;70.70;;;;;;;-145.45;100.00;62759.84;5310669;28;23833;-77
2022/04/14 02:05:24;;;;;;;126.07;70.60;;;;;;;-145.45;100.00;62759.84;5314195;28;20024;-77
2022/04/14 02:07:55;;;;;;;122.57;69.00;;;;;;;-145.45;100.00;62759.84;5314550;28;20464;-77
2022/04/14 02:10:26;;;;;;;120.28;68.57;;;;;;;-145.45;100.00;62759.84;5310289;28;20396;-77
2022/04/14 02:12:59;;;;;;;128.10;71.22;;;;;;;-145.45;100.00;62759.84;5315258;28;20460;-77
2022/04/14 02:15:30;;;;;;;124.68;68.68;;;;;;;-145.45;100.00;62759.84;5313526;28;20114;-77
2022/04/14 02:18:01;;;;;;;113.13;63.22;;;;;;;-145.45;100.00;62759.84;5312597;28;20025;-77
2022/04/14 02:20:32;;;;;;;128.52;71.93;;;;;;;-145.45;100.00;62759.84;5310492;28;20016;-77
2022/04/14 02:23:04;;;;;;;93.40;51.83;;;;;;;-145.45;100.00;62759.84;5311904;28;20445;-77
2022/04/14 02:25:35;;;;;;;113.93;60.25;;;;;;;-145.45;100.00;62759.84;5312498;28;20056;-77
2022/04/14 02:28:06;;;;;;;114.70;60.05;;;;;;;-145.45;100.00;62759.84;5314033;28;20029;-77
2022/04/14 02:30:38;;;;;;;107.55;56.05;;;;;;;-145.45;100.00;62759.84;5312468;28;20387;-77
2022/04/14 02:33:09;;;;;;;60.00;38.20;;;;;;;-145.45;100.00;62759.84;5313258;28;20043;-77
2022/04/14 02:35:40;;;;;;;105.90;56.83;;;;;;;-145.45;100.00;62759.84;5316480;28;20034;-76
2022/04/14 02:38:12;;;;;;;104.10;57.30;;;;;;;-145.45;100.00;62759.84;5313339;28;20397;-76
2022/04/14 02:40:43;;;;;;;106.15;60.60;;;;;;;-145.45;100.00;62759.84;5314364;28;20028;-76
2022/04/14 02:43:15;;;;;;;109.18;61.20;;;;;;;-145.45;100.00;62759.84;5317364;28;20032;-77
2022/04/14 02:45:46;;;;;;;100.82;56.10;;;;;;;-145.45;100.00;62759.84;5311926;28;20044;-76
2022/04/14 02:48:17;;;;;;;84.80;50.30;;;;;;;-145.45;100.00;62759.84;5313656;28;20366;-77
2022/04/14 02:50:48;;;;;;;81.80;48.38;;;;;;;-145.45;100.00;62759.84;5310853;28;40691;-77
2022/04/14 02:53:20;;;;;;;80.85;45.55;;;;;;;-145.45;100.00;62759.84;5300965;28;20025;-77
2022/04/14 02:55:51;;;;;;;90.55;54.28;;;;;;;-145.45;100.00;62759.84;5311556;28;20032;-77
2022/04/14 02:58:22;;;;;;;107.45;58.15;;;;;;;-145.45;100.00;62759.84;5313545;28;20020;-77
2022/04/14 03:00:53;;;;;;;115.80;61.85;;;;;;;-145.45;100.00;62759.84;5312114;28;20029;-77
2022/04/14 03:03:28;;;;;;;130.85;69.13;;;;;;;-145.45;100.00;62759.84;5294241;28;20026;-77
2022/04/14 03:05:59;;;;;;;125.10;67.93;;;;;;;-145.45;100.00;62759.84;5312415;28;20105;-77
2022/04/14 03:08:30;;;;;;;120.40;65.47;;;;;;;-145.45;100.00;62759.84;5312049;28;20043;-77
2022/04/14 03:11:01;;;;;;;117.38;63.80;;;;;;;-145.45;100.00;62759.84;5311794;28;20020;-77
2022/04/14 03:13:33;;;;;;;126.55;64.95;;;;;;;-145.45;100.00;62759.84;5310072;27;20401;-77
2022/04/14 03:16:04;;;;;;;126.95;69.47;;;;;;;-145.45;100.00;62759.84;5307488;28;20050;-77
2022/04/14 03:18:35;;;;;;;137.45;73.30;;;;;;;-145.45;100.00;62759.84;5302894;28;20051;-77
2022/04/14 03:21:07;;;;;;;131.18;70.32;;;;;;;-145.45;100.00;62759.84;5303249;28;20056;-76
2022/04/14 03:23:39;;;;;;;131.65;68.80;;;;;;;-145.45;100.00;62759.84;5303191;28;20665;-77
2022/04/14 03:26:10;;;;;;;136.10;71.22;;;;;;;-145.45;100.00;62759.84;5302987;28;20634;-77
2022/04/14 03:28:42;;;;;;;130.70;67.95;;;;;;;-145.45;100.00;62759.84;5291630;28;20340;-77
2022/04/14 03:31:13;;;;;;;135.55;72.05;;;;;;;-145.45;100.00;62759.84;5296502;28;20387;-76
2022/04/14 03:33:44;;;;;;;146.93;73.20;;;;;;;-145.45;100.00;62759.84;5299264;28;20028;-77
2022/04/14 03:36:15;;;;;;;138.98;70.82;;;;;;;-145.45;100.00;62759.84;5294346;28;40341;-77
2022/04/14 03:38:47;;;;;;;159.30;77.15;;;;;;;-145.45;100.00;62759.84;5299564;28;20027;-77
2022/04/14 03:41:18;;;;;;;144.40;71.13;;;;;;;-145.45;100.00;62759.84;5304109;28;20032;-77
2022/04/14 03:43:49;;;;;;;129.30;63.83;;;;;;;-145.45;100.00;62759.84;5311598;28;20509;-77
2022/04/14 03:46:21;;;;;;;158.52;74.47;;;;;;;-145.45;100.00;62759.84;5291615;28;30369;-77
2022/04/14 03:48:53;;;;;;;149.07;70.75;;;;;;;-145.45;100.00;62759.84;5314791;28;20457;-77
2022/04/14 03:51:25;;;;;;;162.13;73.60;;;;;;;-145.45;100.00;62759.84;5312785;28;20052;-77
2022/04/14 03:53:56;;;;;;;182.98;77.78;;;;;;;-145.45;100.00;62759.84;5310525;28;20099;-77
2022/04/14 03:56:28;;;;;;;205.52;76.15;;;;;;;-145.45;100.00;62759.84;5295394;28;20042;-76
2022/04/14 03:59:00;;;;;;;466.20;84.60;;;;;;;-145.45;100.00;62759.84;5311519;28;20028;-77
2022/04/14 04:01:31;;;;;;;496.70;85.45;;;;;;;-145.45;100.00;62759.84;5312125;28;20078;-76
2022/04/14 04:04:03;;;;;;;152.65;54.28;;;;;;;-145.45;100.00;62759.84;5309648;28;20028;-77
2022/04/14 04:06:34;;;;;;;407.40;80.20;;;;;;;-145.45;100.00;62759.84;5310942;28;20025;-77
2022/04/14 04:09:05;;;;;;;462.38;77.63;;;;;;;-145.45;100.00;62759.84;5312271;28;20115;-77
2022/04/14 04:11:37;;;;;;;505.48;81.68;;;;;;;-145.45;100.00;62759.84;5309921;28;20028;-76
2022/04/14 04:14:08;;;;;;;573.42;86.72;;;;;;;-145.45;100.00;62759.84;5274720;28;20048;-77
2022/04/14 04:16:39;;;;;;;361.75;71.53;;;;;;;-145.45;100.00;62759.84;5313724;28;20020;-77
2022/04/14 04:19:11;;;;;;;270.65;63.00;;;;;;;-145.45;100.00;62759.84;5313904;28;20032;-77
2022/04/14 04:21:42;;;;;;;321.60;71.85;;;;;;;-145.45;100.00;62759.84;5315201;28;20036;-76
2022/04/14 04:24:14;;;;;;;321.65;65.20;;;;;;;-145.45;100.00;62759.84;5307952;28;20417;-77
2022/04/14 04:26:45;;;;;;;266.63;60.80;;;;;;;-145.45;100.00;62759.84;5313559;28;20031;-77
2022/04/14 04:29:16;;;;;;;258.30;62.88;;;;;;;-145.45;100.00;62759.84;5310710;28;20025;-77
2022/04/14 04:31:47;;;;;;;307.58;67.00;;;;;;;-145.45;100.00;62759.84;5307313;28;20059;-77
2022/04/14 04:34:19;;;;;;;310.42;66.10;;;;;;;-145.45;100.00;62759.84;5295811;28;20031;-77
2022/04/14 04:36:50;;;;;;;236.93;63.33;;;;;;;-145.45;100.00;62759.84;5310122;28;20429;-77
2022/04/14 04:39:21;;;;;;;389.48;78.28;;;;;;;-145.45;100.00;62759.84;5307913;28;20087;-76
2022/04/14 04:41:53;;;;;;;178.07;55.80;;;;;;;-145.45;100.00;62759.84;5307067;28;20020;-77
2022/04/14 04:44:24;;;;;;;373.58;76.05;;;;;;;-145.45;100.00;62759.84;5310996;28;20056;-77
2022/04/14 04:46:55;;;;;;;339.83;72.97;;;;;;;-145.45;100.00;62759.84;5305382;28;20423;-77
2022/04/14 04:49:27;;;;;;;431.05;78.05;;;;;;;-145.45;100.00;62759.84;5291898;28;20036;-76
2022/04/14 04:52:00;;;;;;;307.15;67.00;;;;;;;-145.45;100.00;62759.84;5293863;28;20115;-76
2022/04/14 04:54:31;;;;;;;350.77;70.53;;;;;;;-145.45;100.00;62759.84;5304776;28;20540;-79
2022/04/14 04:57:03;;;;;;;437.23;79.30;;;;;;;-145.45;100.00;62759.84;5300584;28;20124;-79
2022/04/14 04:59:34;;;;;;;348.20;71.50;;;;;;;-145.45;100.00;62759.84;5298676;28;20029;-80
2022/04/14 05:02:05;;;;;;;336.27;67.18;;;;;;;-145.45;100.00;62759.84;5298094;28;20155;-78
2022/04/14 05:04:37;;;;;;;369.85;72.30;;;;;;;-145.45;100.00;62759.84;5303590;28;20121;-76
2022/04/14 05:07:08;;;;;;;456.75;79.93;;;;;;;-145.45;100.00;62759.84;5309018;28;20166;-78
2022/04/14 05:09:40;;;;;;;383.77;74.78;;;;;;;-145.45;100.00;62759.84;5302078;28;20032;-79
2022/04/14 05:12:11;;;;;;;383.75;76.78;;;;;;;-145.45;100.00;62759.84;5312459;28;20241;-79
2022/04/14 05:14:42;;;;;;;326.38;76.93;;;;;;;-145.45;100.00;62759.84;5309396;28;20126;-79
2022/04/14 05:17:14;;;;;;;239.02;64.50;;;;;;;-145.45;100.00;62759.84;5306810;28;20436;-79
2022/04/14 05:19:45;;;;;;;574.88;92.13;;;;;;;-145.45;100.00;62759.84;5308515;28;20086;-79
2022/04/14 05:22:16;;;;;;;313.38;68.88;;;;;;;-145.45;100.00;62759.84;5302854;28;20067;-77
2022/04/14 05:24:47;;;;;;;298.70;70.93;;;;;;;-145.45;100.00;62759.84;5287043;28;20401;-76
2022/04/14 05:27:19;;;;;;;333.08;74.82;;;;;;;-145.45;100.00;62759.84;5305995;28;20028;-78
2022/04/14 05:29:50;;;;;;;224.25;69.25;;;;;;;-145.45;100.00;62759.84;5312191;28;20082;-79
2022/04/14 05:32:21;;;;;;;238.70;70.28;;;;;;;-145.45;100.00;62759.84;5305995;28;20381;-79
2022/04/14 05:34:53;;;;;;;174.60;63.10;;;;;;;-145.45;100.00;62759.84;5300662;28;20469;-79
2022/04/14 05:37:25;;;;;;;198.85;66.22;;;;;;;-145.45;100.00;62759.84;5285558;28;20063;-79
2022/04/14 05:39:56;;;;;;;159.38;63.45;;;;;;;-145.45;100.00;62759.84;5303814;28;20025;-79
2022/04/14 05:42:27;;;;;;;174.93;70.47;;;;;;;-145.45;100.00;62759.84;5306835;28;20456;-77
2022/04/14 05:44:59;;;;;;;159.95;66.50;;;;;;;-145.45;100.00;62759.84;5313387;28;20379;-77
2022/04/14 05:47:30;;;;;;;195.63;72.38;;;;;;;-145.45;100.00;62759.84;5314931;28;20032;-76
2022/04/14 05:50:01;;;;;;;150.50;70.60;;;;;;;-145.45;100.00;62759.84;5315702;28;20353;-77
2022/04/14 05:52:32;;;;;;;153.82;70.70;;;;;;;-145.45;100.00;62759.84;5316487;28;20032;-77
2022/04/14 05:55:04;;;;;;;127.82;63.95;;;;;;;-145.45;100.00;62759.84;5315423;28;20019;-77
2022/04/14 05:57:36;;;;;;;148.48;67.20;;;;;;;-145.45;100.00;62759.84;5314029;28;20138;-77
2022/04/14 06:00:08;;;;;;;106.95;60.05;;;;;;;-145.45;100.00;62759.84;5311531;28;20027;-77
2022/04/14 06:02:40;;;;;;;100.18;58.50;;;;;;;-145.45;100.00;62759.84;5292063;28;20060;-78
2022/04/14 06:05:12;;;;;;;95.93;55.55;;;;;;;-145.45;100.00;62759.84;5316511;28;20085;-77
2022/04/14 06:07:43;;;;;;;89.95;57.42;;;;;;;-145.45;100.00;62759.84;5313102;28;20033;-77
2022/04/14 06:10:15;;;;;;;92.28;56.42;;;;;;;-145.45;100.00;62759.84;5314957;28;20586;-77
2022/04/14 06:12:46;;;;;;;86.90;56.63;;;;;;;-145.45;100.00;62759.84;5305979;28;20522;-77
2022/04/14 06:15:19;;;;;;;86.28;56.40;;;;;;;-145.45;100.00;62759.84;5300471;28;20048;-77
2022/04/14 06:17:50;;;;;;;85.25;54.83;;;;;;;-145.45;100.00;62759.84;5304290;28;20134;-77
2022/04/14 06:20:22;;;;;;;82.40;53.17;;;;;;;-145.45;100.00;62759.84;5290614;28;20358;-78
2022/04/14 06:22:55;;;;;;;62.55;45.42;;;;;;;-145.45;100.00;62759.84;5310471;28;20480;-77
2022/04/14 06:25:26;;;;;;;58.45;43.45;;;;;;;-145.45;100.00;62759.84;5295481;28;20033;-77
2022/04/14 06:27:58;;;;;;;47.35;38.72;;;;;;;-145.45;100.00;62759.84;5314573;28;20503;-77
2022/04/14 06:30:29;;;;;;;48.15;40.20;;;;;;;-145.45;100.00;62759.84;5297258;28;20078;-77
2022/04/14 06:33:02;;;;;;;44.95;37.63;;;;;;;-145.45;100.00;62759.84;5314759;28;20074;-77
2022/04/14 06:35:34;;;;;;;42.38;36.83;;;;;;;-145.45;100.00;62759.84;5308958;28;20067;-78
2022/04/14 06:38:05;;;;;;;33.53;30.10;;;;;;;-145.45;100.00;62759.84;5316630;28;20060;-78
2022/04/14 06:40:37;;;;;;;34.13;30.70;;;;;;;-145.45;100.00;62759.84;5316408;28;20040;-77
2022/04/14 06:43:08;;;;;;;32.72;29.50;;;;;;;-145.45;100.00;62759.84;5303960;28;20024;-77
2022/04/14 06:45:39;;;;;;;29.00;26.30;;;;;;;-145.45;100.00;62759.84;5284227;28;20032;-77
2022/04/14 06:48:11;;;;;;;29.00;26.23;;;;;;;-145.45;100.00;62759.84;5288852;28;20453;-77
2022/04/14 06:50:42;;;;;;;24.80;22.40;;;;;;;-145.45;100.00;62759.84;5308875;28;20017;-77
2022/04/14 06:53:15;;;;;;;23.90;21.35;;;;;;;-145.45;100.00;62759.84;5287448;28;20028;-76
2022/04/14 06:55:48;;;;;;;24.10;21.60;;;;;;;-145.45;100.00;62759.84;5286634;28;20643;-77
2022/04/14 06:58:20;;;;;;;24.60;19.30;;;;;;;-145.45;100.00;62759.84;5286476;28;20021;-77
2022/04/14 07:00:51;;;;;;;20.15;18.13;;;;;;;-145.45;100.00;62759.84;5305617;28;20024;-77
2022/04/14 07:03:26;;;;;;;18.77;17.00;;;;;;;-145.45;100.00;62759.84;5304983;28;20917;-77
2022/04/14 07:06:00;;;;;;;17.80;16.05;;;;;;;-145.45;100.00;62759.84;5304875;28;20104;-78
2022/04/14 07:08:33;;;;;;;16.70;15.10;;;;;;;-145.45;100.00;62759.84;5304722;28;20073;-77
2022/04/14 07:11:05;;;;;;;18.60;16.75;;;;;;;-145.45;100.00;62759.84;5288592;28;20021;-77
2022/04/14 07:13:36;;;;;;;18.45;16.50;;;;;;;-145.45;100.00;62759.84;5301673;28;20383;-77
2022/04/14 07:16:07;;;;;;;18.13;16.20;;;;;;;-145.45;100.00;62759.84;5283373;28;20075;-77
2022/04/14 07:18:40;;;;;;;16.88;15.18;;;;;;;-145.45;100.00;62759.84;5283284;28;20028;-77
2022/04/14 07:21:12;;;;;;;15.90;14.30;;;;;;;-145.45;100.00;62759.84;5284314;28;20021;-76
2022/04/14 07:23:44;;;;;;;16.52;14.93;;;;;;;-145.45;100.00;62759.84;5322989;28;20097;-77
2022/04/14 07:26:15;;;;;;;17.33;15.63;;;;;;;-145.45;100.00;62759.84;5266990;28;20148;-77
2022/04/14 07:28:46;;;;;;;16.23;14.50;;;;;;;-145.45;100.00;62759.84;5304426;28;20084;-77
2022/04/14 07:31:18;;;;;;;16.85;14.98;;;;;;;-145.45;100.00;62759.84;5289991;28;20029;-77
2022/04/14 07:33:49;;;;;;;15.70;13.45;;;;;;;-145.45;100.00;62759.84;5282987;28;20027;-77
2022/04/14 07:36:21;;;;;;;16.70;15.07;;;;;;;-145.45;100.00;62759.84;5290362;28;20028;-77
2022/04/14 07:38:52;;;;;;;14.40;13.00;;;;;;;-145.45;100.00;62759.84;5325287;28;20024;-77
2022/04/14 07:41:26;;;;;;;15.77;13.00;;;;;;;-145.45;100.00;62759.84;5287486;28;20017;-77
2022/04/14 07:43:58;;;;;;;12.43;11.20;;;;;;;-145.45;100.00;62759.84;5282733;28;20105;-77
2022/04/14 07:46:29;;;;;;;13.02;11.70;;;;;;;-145.45;100.00;62759.84;5292052;28;20107;-77
2022/04/14 07:49:01;;;;;;;12.30;10.50;;;;;;;-145.45;100.00;62759.84;5324506;28;20016;-77
2022/04/14 07:51:32;;;;;;;12.18;10.35;;;;;;;-145.45;100.00;62759.84;5306283;28;20012;-77
2022/04/14 07:54:04;;;;;;;11.98;9.80;;;;;;;-145.45;100.00;62759.84;5305319;28;20042;-77
2022/04/14 07:56:35;;;;;;;12.18;9.25;;;;;;;-145.45;100.00;62759.84;5304295;28;20028;-78
2022/04/14 07:59:06;;;;;;;11.63;9.30;;;;;;;-145.45;100.00;62759.84;5285621;28;20028;-77
2022/04/14 08:01:38;;;;;;;11.05;9.65;;;;;;;-145.45;100.00;62759.84;5306419;28;20036;-78
2022/04/14 08:04:09;;;;;;;12.48;11.23;;;;;;;-145.45;100.00;62759.84;5303787;28;20032;-78
2022/04/14 08:06:40;;;;;;;11.48;10.27;;;;;;;-145.45;100.00;62759.84;5303820;28;20103;-78
2022/04/14 08:09:11;;;;;;;11.90;10.80;;;;;;;-145.45;100.00;62759.84;5285426;28;20032;-78
2022/04/14 08:11:43;;;;;;;12.57;10.20;;;;;;;-145.45;100.00;62759.84;5302475;28;42390;-78
2022/04/14 08:14:14;;;;;;;11.98;9.55;;;;;;;-145.45;100.00;62759.84;5286479;28;20289;-78
2022/04/14 08:16:45;;;;;;;9.90;8.90;;;;;;;-145.45;100.00;62759.84;5282179;28;20021;-78
2022/04/14 08:19:17;;;;;;;9.05;8.15;;;;;;;-145.45;100.00;62759.84;5281771;28;20025;-78
2022/04/14 08:21:48;;;;;;;9.30;7.85;;;;;;;-145.45;100.00;62759.84;5288570;28;20459;-77
2022/04/14 08:24:20;;;;;;;16.02;9.18;;;;;;;-145.45;100.00;62759.84;5306955;28;20039;-78
2022/04/14 08:26:52;;;;;;;9.68;8.68;;;;;;;-145.45;100.00;62759.84;5285877;28;20032;-78
2022/04/14 08:29:23;;;;;;;9.13;8.23;;;;;;;-145.45;100.00;62759.84;5282573;28;20013;-78
2022/04/14 08:31:54;;;;;;;9.40;8.47;;;;;;;-145.45;100.00;62759.84;5278932;28;20037;-78
2022/04/14 08:34:26;;;;;;;10.75;9.68;;;;;;;-145.45;100.00;62759.84;5282238;28;20322;-77
2022/04/14 08:36:57;;;;;;;11.50;10.30;;;;;;;-145.45;100.00;62759.84;5295571;28;20328;-78
2022/04/14 08:39:30;;;;;;;10.02;9.02;;;;;;;-145.45;100.00;62759.84;5318525;28;20484;-77
2022/04/14 08:42:12;;;;;;;15.73;9.75;;;;;;;-145.45;100.00;62759.84;5282409;28;20043;-78
2022/04/14 08:44:49;;;;;;;10.55;9.50;;;;;;;-145.45;100.00;62759.84;5266771;28;20110;-78
2022/04/14 08:47:21;;;;;;;10.57;9.35;;;;;;;-145.45;100.00;62759.84;5280966;28;20036;-77
2022/04/14 08:49:54;;;;;;;13.02;9.50;;;;;;;-145.45;100.00;62759.84;5292466;28;20024;-77
2022/04/14 08:52:26;;;;;;;11.82;9.10;;;;;;;-145.45;100.00;62759.84;5302924;28;20120;-78
2022/04/14 08:54:58;;;;;;;10.55;9.48;;;;;;;-145.45;100.00;62759.84;5303682;28;20024;-78
2022/04/14 08:57:30;;;;;;;10.80;9.70;;;;;;;-145.45;100.00;62759.84;5301604;28;20040;-78
2022/04/14 09:00:06;;;;;;;9.18;7.88;;;;;;;-145.45;100.00;62759.84;5302374;28;20021;-79
2022/04/14 09:02:38;;;;;;;11.68;7.70;;;;;;;-145.45;100.00;62759.84;5301669;28;20458;-78
2022/04/14 09:05:10;;;;;;;8.98;6.38;;;;;;;-145.45;100.00;62759.84;5300236;28;20207;-79
2022/04/14 09:07:41;;;;;;;9.63;6.20;;;;;;;-145.45;100.00;62759.84;5303101;28;20029;-78
2022/04/14 09:10:13;;;;;;;8.27;5.78;;;;;;;-145.45;100.00;62759.84;5302484;28;20032;-78
2022/04/14 09:12:45;;;;;;;8.82;6.22;;;;;;;-145.45;100.00;62759.84;5307371;28;20012;-78
2022/04/14 09:15:17;;;;;;;5.78;5.13;;;;;;;-145.45;100.00;62759.84;5282860;28;20055;-78
2022/04/14 09:17:48;;;;;;;8.07;5.38;;;;;;;-145.45;100.00;62759.84;5273339;28;20416;-77
2022/04/14 09:20:27;;;;;;;7.23;5.50;;;;;;;-145.45;100.00;62759.84;5263126;28;20026;-78
2022/04/14 09:23:26;;;;;;;7.03;5.80;;;;;;;-145.45;100.00;62759.84;5301452;28;20263;-78
2022/04/14 09:26:03;;;;;;;7.40;5.65;;;;;;;-145.45;100.00;62759.84;5273247;28;20029;-78
2022/04/14 09:28:34;;;;;;;7.13;4.93;;;;;;;-145.45;100.00;62759.84;5290732;28;20021;-78
2022/04/14 09:31:10;;;;;;;7.60;4.60;;;;;;;-145.45;100.00;62759.84;5264856;28;20359;-78
2022/04/14 09:33:48;;;;;;;5.30;4.18;;;;;;;-145.45;100.00;62759.84;5263861;28;20387;-78
2022/04/14 09:36:23;;;;;;;5.78;5.18;;;;;;;-145.45;100.00;62759.84;5264351;28;20029;-78
2022/04/14 09:39:01;;;;;;;5.55;4.25;;;;;;;-145.45;100.00;62759.84;5265632;28;20021;-77
2022/04/14 09:41:41;;;;;;;4.53;4.13;;;;;;;-145.45;100.00;62759.84;5294634;28;20130;-78
2022/04/14 09:44:15;;;;;;;7.07;4.55;;;;;;;-145.45;100.00;62759.84;5306513;28;20032;-78
2022/04/14 09:46:47;;;;;;;6.28;4.78;;;;;;;-145.45;100.00;62759.84;5299612;28;20025;-78
2022/04/14 09:49:18;;;;;;;4.40;4.00;;;;;;;-145.45;100.00;62759.84;5284874;28;20123;-78
2022/04/14 09:51:52;;;;;;;7.63;4.43;;;;;;;-145.45;100.00;62759.84;5285230;28;20531;-78
2022/04/14 09:54:30;;;;;;;6.40;4.03;;;;;;;-145.45;100.00;62759.84;5285098;28;20264;-78
2022/04/14 09:57:01;;;;;;;6.47;4.45;;;;;;;-145.45;100.00;62759.84;5285140;28;20033;-78
2022/04/14 09:59:34;;;;;;;4.70;4.30;;;;;;;-145.45;100.00;62759.84;5284162;28;20031;-78
2022/04/14 10:02:16;;;;;;;6.45;4.22;;;;;;;-145.45;100.00;62759.84;5278842;28;20278;-78
2022/04/14 10:04:48;;;;;;;4.65;4.10;;;;;;;-145.45;100.00;62759.84;5284021;28;20485;-79
2022/04/14 10:07:20;;;;;;;6.65;5.30;;;;;;;-145.45;100.00;62759.84;5284531;28;20103;-78
2022/04/14 10:09:51;;;;;;;5.75;4.85;;;;;;;-145.45;100.00;62759.84;5284324;28;20086;-78
2022/04/14 10:12:22;;;;;;;6.65;4.45;;;;;;;-145.45;100.00;62759.84;5301315;28;20036;-77
2022/04/14 10:14:57;;;;;;;3.90;3.50;;;;;;;-145.45;100.00;62759.84;5320427;28;20043;-78
2022/04/14 10:17:31;;;;;;;4.45;3.60;;;;;;;-145.45;100.00;62759.84;5310292;28;20064;-78
2022/04/14 10:20:05;;;;;;;5.03;3.50;;;;;;;-145.45;100.00;62759.84;5303923;28;20051;-78
2022/04/14 10:22:39;;;;;;;3.92;3.53;;;;;;;-145.45;100.00;62759.84;5302823;28;20369;-78
2022/04/14 10:25:12;;;;;;;3.55;2.80;;;;;;;-145.45;100.00;62759.84;5303435;28;20465;-78
2022/04/14 10:27:46;;;;;;;3.85;3.05;;;;;;;-145.45;100.00;62759.84;5304616;28;20036;-77
2022/04/14 10:30:19;;;;;;;4.57;3.40;;;;;;;-145.45;100.00;62759.84;5285363;28;20052;-77
2022/04/14 10:32:55;;;;;;;4.60;3.20;;;;;;;-145.45;100.00;62759.84;5303944;28;20025;-78
2022/04/14 10:35:29;;;;;;;3.90;3.20;;;;;;;-145.45;100.00;62759.84;5285960;28;20082;-75
2022/04/14 10:38:10;;;;;;;5.68;3.60;;;;;;;-145.45;100.00;62759.84;5303044;28;20903;-76
2022/04/14 10:40:46;;;;;;;4.60;3.30;;;;;;;-145.45;100.00;62759.84;5304795;28;20123;-77
2022/04/14 10:43:20;;;;;;;4.82;3.05;;;;;;;-145.45;100.00;62759.84;5304310;28;20013;-78
2022/04/14 10:45:54;;;;;;;4.90;2.72;;;;;;;-145.45;100.00;62759.84;5283839;28;20055;-78
2022/04/14 10:48:31;;;;;;;3.35;2.50;;;;;;;-145.45;100.00;62759.84;5306595;28;20040;-78
2022/04/14 10:51:28;;;;;;;3.03;2.38;;;;;;;-145.45;100.00;62759.84;5310731;28;20029;-79
2022/04/14 10:54:08;;;;;;;3.72;2.33;;;;;;;-145.45;100.00;62759.84;5274271;28;20020;-78
2022/04/14 10:56:45;;;;;;;2.58;1.98;;;;;;;-145.45;100.00;62759.84;5297228;28;20037;-78
2022/04/14 10:59:41;;;;;;;4.68;2.03;;;;;;;-145.45;100.00;62759.84;5314165;28;20115;-78
2022/04/14 11:02:12;;;;;;;4.05;2.47;;;;;;;-145.45;100.00;62759.84;5297718;28;20072;-79
2022/04/14 11:04:53;;;;;;;3.08;2.35;;;;;;;-145.45;100.00;62759.84;5305716;28;20166;-79
2022/04/14 11:07:24;;;;;;;4.10;3.17;;;;;;;-145.45;100.00;62759.84;5309712;28;20051;-78
2022/04/14 11:10:00;;;;;;;2.70;2.50;;;;;;;-145.45;100.00;62759.84;5272650;28;20106;-79
2022/04/14 11:12:40;;;;;;;3.92;2.50;;;;;;;-145.45;100.00;62759.84;5286348;28;20274;-79
2022/04/14 11:15:12;;;;;;;3.53;2.25;;;;;;;-145.45;100.00;62759.84;5304285;28;20095;-79
2022/04/14 11:17:57;;;;;;;7.47;2.50;;;;;;;-145.45;100.00;62759.84;5303965;28;20530;-79